Time;durP1;ratioP1;P1;durP2;ratioP2;P2;SDS_P1;SDS_P2;PMS_P1;PMS_P2;Temp;Humidity;BMP_temperature;BMP_pressure;BME280_temperature;BME280_humidity;BME280_pressure;Samples;Min_cycle;Max_cycle;Signal;HPM_P1;HPM_P2
2021/09/26 00:00:32;;;;;;;;;;;16.60;99.90;;;;;;5075397;28;19924;-78
2021/09/26 00:03:02;;;;;;;;;;;16.60;99.90;;;;;;5075974;28;19929;-78
2021/09/26 00:05:30;;;;;;;;;;;16.50;99.90;;;;;;5075917;28;19930;-78
2021/09/26 00:07:57;;;;;;;;;;;16.50;99.90;;;;;;5075804;28;19924;-78
2021/09/26 00:10:27;;;;;;;;;;;16.50;99.90;;;;;;5075302;28;19935;-78
2021/09/26 00:12:56;;;;;;;;;;;16.40;99.90;;;;;;5076017;28;20329;-78
2021/09/26 00:15:24;;;;;;;;;;;16.40;99.90;;;;;;5075805;28;19939;-78
2021/09/26 00:17:52;;;;;;;;;;;16.40;99.90;;;;;;5075710;28;19989;-78
2021/09/26 00:20:21;;;;;;;;;;;16.40;99.90;;;;;;5075237;28;19924;-78
2021/09/26 00:22:49;;;;;;;;;;;16.40;99.90;;;;;;5075662;28;19924;-78
2021/09/26 00:25:18;;;;;;;;;;;16.30;99.90;;;;;;5075537;28;19924;-78
2021/09/26 00:27:46;;;;;;;;;;;16.30;99.90;;;;;;5075523;28;19924;-78
2021/09/26 00:30:14;;;;;;;;;;;16.30;99.90;;;;;;5075733;28;19934;-78
2021/09/26 00:32:41;;;;;;;;;;;16.30;99.90;;;;;;5075338;28;19924;-77
2021/09/26 00:35:08;;;;;;;;;;;16.30;99.90;;;;;;5075763;28;19928;-78
2021/09/26 00:37:36;;;;;;;;;;;16.30;99.90;;;;;;5075430;28;20348;-78
2021/09/26 00:40:04;;;;;;;;;;;16.30;99.90;;;;;;5074874;28;20035;-78
2021/09/26 00:42:31;;;;;;;;;;;16.30;99.90;;;;;;5075271;28;19942;-78
2021/09/26 00:44:58;;;;;;;;;;;16.40;99.90;;;;;;5075417;28;19924;-78
2021/09/26 00:47:25;;;;;;;;;;;16.30;99.90;;;;;;5075378;28;19975;-78
2021/09/26 00:49:52;;;;;;;;;;;16.30;99.90;;;;;;5075232;28;19924;-78
2021/09/26 00:52:19;;;;;;;;;;;16.30;99.90;;;;;;5075171;28;19935;-78
2021/09/26 00:54:47;;;;;;;;;;;16.30;99.90;;;;;;5075207;28;20273;-79
2021/09/26 00:57:14;;;;;;;;;;;16.30;99.90;;;;;;5075189;28;20344;-78
2021/09/26 00:59:41;;;;;;;;;;;16.20;99.90;;;;;;5075277;28;20298;-79
2021/09/26 01:02:10;;;;;;;;;;;16.20;99.90;;;;;;5068169;28;20260;-78
2021/09/26 01:04:41;;;;;;;;;;;16.10;99.90;;;;;;5075330;28;19924;-78
2021/09/26 01:07:09;;;;;;;;;;;16.10;99.90;;;;;;5074830;28;19975;-78
2021/09/26 01:09:40;;;;;;;;;;;16.00;99.90;;;;;;5075071;28;19924;-78
2021/09/26 01:12:10;;;;;;;;;;;16.00;99.90;;;;;;5075113;28;20032;-78
2021/09/26 01:14:40;;;;;;;;;;;16.00;99.90;;;;;;5075168;28;20318;-79
2021/09/26 01:17:09;;;;;;;;;;;15.90;99.90;;;;;;5074935;28;20344;-78
2021/09/26 01:19:59;;;;;;;;;;;15.90;99.90;;;;;;5074946;28;19994;-78
2021/09/26 01:22:28;;;;;;;;;;;15.90;99.90;;;;;;5078141;28;19924;-78
2021/09/26 01:25:16;;;;;;;;;;;15.90;99.90;;;;;;5079199;28;19972;-78
2021/09/26 01:28:04;;;;;;;;;;;15.90;99.90;;;;;;5074098;28;19929;-79
2021/09/26 01:30:41;;;;;;;;;;;15.90;99.90;;;;;;5017474;28;19932;-78
2021/09/26 01:33:11;;;;;;;;;;;16.00;99.90;;;;;;5017713;28;19999;-78
2021/09/26 01:35:43;;;;;;;;;;;16.00;99.90;;;;;;5017510;28;19937;-79
2021/09/26 01:38:13;;;;;;;;;;;16.00;99.90;;;;;;5017560;28;19926;-78
2021/09/26 01:40:45;;;;;;;;;;;16.10;99.90;;;;;;5017294;28;20012;-78
2021/09/26 01:43:14;;;;;;;;;;;16.10;99.90;;;;;;5017312;28;19936;-78
2021/09/26 01:45:45;;;;;;;;;;;16.10;99.90;;;;;;5017214;28;20000;-79
2021/09/26 01:48:13;;;;;;;;;;;16.10;99.90;;;;;;5017484;28;19929;-78
2021/09/26 01:50:41;;;;;;;;;;;16.10;99.90;;;;;;5017306;28;20388;-78
2021/09/26 01:53:10;;;;;;;;;;;16.10;99.90;;;;;;5017113;28;19940;-79
2021/09/26 01:55:37;;;;;;;;;;;16.10;99.90;;;;;;5017084;28;20354;-78
2021/09/26 01:58:04;;;;;;;;;;;16.10;99.90;;;;;;5016603;28;20369;-78
2021/09/26 02:00:31;;;;;;;;;;;16.10;99.90;;;;;;5017003;28;19926;-78
2021/09/26 02:02:59;;;;;;;;;;;16.10;99.90;;;;;;5016596;28;19925;-78
2021/09/26 02:05:26;;;;;;;;;;;16.10;99.90;;;;;;5016645;28;19936;-78
2021/09/26 02:07:53;;;;;;;;;;;16.00;99.90;;;;;;5052852;28;19925;-79
2021/09/26 02:10:20;;;;;;;;;;;16.00;99.90;;;;;;5078348;28;20037;-78
2021/09/26 02:12:47;;;;;;;;;;;16.00;99.90;;;;;;5078378;28;19924;-79
2021/09/26 02:15:14;;;;;;;;;;;16.00;99.90;;;;;;5078108;28;20271;-78
2021/09/26 02:17:41;;;;;;;;;;;16.00;99.90;;;;;;5078071;28;19925;-79
2021/09/26 02:20:09;;;;;;;;;;;16.00;99.90;;;;;;5077825;28;19929;-78
2021/09/26 02:22:37;;;;;;;;;;;15.90;99.90;;;;;;5077596;28;19925;-80
2021/09/26 02:25:04;;;;;;;;;;;15.90;99.90;;;;;;5077859;28;19924;-79
2021/09/26 02:27:31;;;;;;;;;;;15.90;99.90;;;;;;5078001;28;19935;-79
2021/09/26 02:29:58;;;;;;;;;;;15.80;99.90;;;;;;5078134;28;19924;-80
2021/09/26 02:32:25;;;;;;;;;;;15.80;99.90;;;;;;5077503;28;20365;-79
2021/09/26 02:34:52;;;;;;;;;;;15.70;99.90;;;;;;5077862;28;19925;-79
2021/09/26 02:37:20;;;;;;;;;;;15.70;99.90;;;;;;5077636;28;19924;-80
2021/09/26 02:39:47;;;;;;;;;;;15.60;99.90;;;;;;5077837;28;20336;-80
2021/09/26 02:42:16;;;;;;;;;;;15.60;99.90;;;;;;5077771;28;19929;-79
2021/09/26 02:44:44;;;;;;;;;;;15.60;99.90;;;;;;5077554;28;19935;-80
2021/09/26 02:47:12;;;;;;;;;;;15.50;99.90;;;;;;5077511;28;19925;-80
2021/09/26 02:49:40;;;;;;;;;;;15.50;99.90;;;;;;5077452;28;20276;-79
2021/09/26 02:52:07;;;;;;;;;;;15.50;99.90;;;;;;5077459;28;19938;-80
2021/09/26 02:54:36;;;;;;;;;;;15.50;99.90;;;;;;5077398;28;19989;-79
2021/09/26 02:57:03;;;;;;;;;;;15.50;99.90;;;;;;5077329;28;19924;-80
2021/09/26 02:59:30;;;;;;;;;;;15.50;99.90;;;;;;5077435;28;19924;-79
2021/09/26 03:01:57;;;;;;;;;;;15.60;99.90;;;;;;5077219;28;20303;-76
2021/09/26 03:04:24;;;;;;;;;;;15.60;99.90;;;;;;5077270;28;20328;-80
2021/09/26 03:06:51;;;;;;;;;;;15.60;99.90;;;;;;5077125;28;19925;-79
2021/09/26 03:09:17;;;;;;;;;;;15.60;99.90;;;;;;5077323;28;19937;-79
2021/09/26 03:11:46;;;;;;;;;;;15.60;99.90;;;;;;5077254;28;19929;-79
2021/09/26 03:14:13;;;;;;;;;;;15.60;99.90;;;;;;5077017;28;19925;-79
2021/09/26 03:16:39;;;;;;;;;;;15.70;99.90;;;;;;5076987;28;20470;-78
2021/09/26 03:19:06;;;;;;;;;;;15.70;99.90;;;;;;5076962;28;20256;-80
2021/09/26 03:21:33;;;;;;;;;;;15.70;99.90;;;;;;5076946;28;19925;-79
2021/09/26 03:24:00;;;;;;;;;;;15.70;99.90;;;;;;5076813;28;19925;-80
2021/09/26 03:26:27;;;;;;;;;;;15.70;99.90;;;;;;5076934;28;19924;-80
2021/09/26 03:28:55;;;;;;;;;;;15.70;99.90;;;;;;5076813;28;19924;-80
2021/09/26 03:31:23;;;;;;;;;;;15.70;99.90;;;;;;5076790;28;19925;-80
2021/09/26 03:33:53;;;;;;;;;;;15.70;99.90;;;;;;5076506;28;19924;-80
2021/09/26 03:36:20;;;;;;;;;;;15.80;99.90;;;;;;5076600;28;19936;-79
2021/09/26 03:38:47;;;;;;;;;;;15.80;99.90;;;;;;5076712;28;19925;-79
2021/09/26 03:41:14;;;;;;;;;;;15.80;99.90;;;;;;5076696;28;19925;-79
2021/09/26 03:43:41;;;;;;;;;;;15.80;99.90;;;;;;5075777;28;20379;-80
2021/09/26 03:46:09;;;;;;;;;;;15.80;99.90;;;;;;5076356;28;20367;-80
2021/09/26 03:48:36;;;;;;;;;;;15.90;99.90;;;;;;5076208;28;19935;-80
2021/09/26 03:51:03;;;;;;;;;;;15.90;99.90;;;;;;5076261;28;20348;-80
2021/09/26 03:53:30;;;;;;;;;;;15.90;99.90;;;;;;5076256;28;20375;-77
2021/09/26 03:55:57;;;;;;;;;;;15.90;99.90;;;;;;5076167;28;19925;-80
2021/09/26 03:58:24;;;;;;;;;;;15.90;99.90;;;;;;5076098;28;19924;-79
2021/09/26 04:00:50;;;;;;;;;;;16.00;99.90;;;;;;5076156;28;19924;-79
2021/09/26 04:03:19;;;;;;;;;;;16.00;99.90;;;;;;5076168;28;19924;-80
2021/09/26 04:05:45;;;;;;;;;;;16.00;99.90;;;;;;5076305;28;19951;-80
2021/09/26 04:08:13;;;;;;;;;;;16.00;99.90;;;;;;5076185;28;20351;-80
2021/09/26 04:10:40;;;;;;;;;;;16.00;99.90;;;;;;5075994;28;19924;-78
2021/09/26 04:13:07;;;;;;;;;;;16.10;99.90;;;;;;5075896;28;20312;-80
2021/09/26 04:15:34;;;;;;;;;;;16.00;99.90;;;;;;5075917;28;19924;-79
2021/09/26 04:18:01;;;;;;;;;;;16.10;99.90;;;;;;5075731;28;19935;-80
2021/09/26 04:20:29;;;;;;;;;;;16.10;99.90;;;;;;5075406;28;19928;-80
2021/09/26 04:22:56;;;;;;;;;;;16.10;99.90;;;;;;5075848;28;19929;-79
2021/09/26 04:25:23;;;;;;;;;;;16.10;99.90;;;;;;5075724;28;19951;-79
2021/09/26 04:27:50;;;;;;;;;;;16.10;99.90;;;;;;5075591;28;19931;-79
2021/09/26 04:30:17;;;;;;;;;;;16.10;99.90;;;;;;5075594;28;19968;-79
2021/09/26 04:32:44;;;;;;;;;;;16.10;99.90;;;;;;5075612;28;19925;-79
2021/09/26 04:35:14;;;;;;;;;;;16.10;99.90;;;;;;5075441;28;19925;-79
2021/09/26 04:37:47;;;;;;;;;;;16.10;99.90;;;;;;5075567;28;19935;-79
2021/09/26 04:40:15;;;;;;;;;;;16.10;99.90;;;;;;5075942;28;20254;-79
2021/09/26 04:42:43;;;;;;;;;;;16.20;99.90;;;;;;5075410;28;19925;-80
2021/09/26 04:45:12;;;;;;;;;;;16.20;99.90;;;;;;5075477;28;19928;-79
2021/09/26 04:47:40;;;;;;;;;;;16.20;99.90;;;;;;5075397;28;19932;-80
2021/09/26 04:50:08;;;;;;;;;;;16.20;99.90;;;;;;5075312;28;20372;-80
2021/09/26 04:52:37;;;;;;;;;;;16.20;99.90;;;;;;5075479;28;19924;-80
2021/09/26 04:55:05;;;;;;;;;;;16.20;99.90;;;;;;5075385;28;19998;-80
2021/09/26 04:57:32;;;;;;;;;;;16.30;99.90;;;;;;5075117;28;19931;-80
2021/09/26 04:59:59;;;;;;;;;;;16.30;99.90;;;;;;5075190;28;19938;-79
2021/09/26 05:02:26;;;;;;;;;;;16.30;99.90;;;;;;5074432;28;19969;-80
2021/09/26 05:04:53;;;;;;;;;;;16.30;99.90;;;;;;5075404;28;20239;-80
2021/09/26 05:07:20;;;;;;;;;;;16.30;99.90;;;;;;5074998;28;19924;-79
2021/09/26 05:09:47;;;;;;;;;;;16.30;99.90;;;;;;5075084;28;20361;-80
2021/09/26 05:12:15;;;;;;;;;;;16.30;99.90;;;;;;5075188;28;19924;-79
2021/09/26 05:14:42;;;;;;;;;;;16.30;99.90;;;;;;5075243;28;19925;-80
2021/09/26 05:17:09;;;;;;;;;;;16.30;99.90;;;;;;5075088;28;19925;-79
2021/09/26 05:19:35;;;;;;;;;;;16.30;99.90;;;;;;5075051;28;19938;-80
2021/09/26 05:22:02;;;;;;;;;;;16.30;99.90;;;;;;5074839;28;19928;-80
2021/09/26 05:24:29;;;;;;;;;;;16.30;99.90;;;;;;5075061;28;19924;-80
2021/09/26 05:26:56;;;;;;;;;;;16.40;99.90;;;;;;5074865;28;20407;-79
2021/09/26 05:29:24;;;;;;;;;;;16.30;99.90;;;;;;5074902;28;19925;-80
2021/09/26 05:31:51;;;;;;;;;;;16.30;99.90;;;;;;5075014;28;19935;-79
2021/09/26 05:34:18;;;;;;;;;;;16.40;99.90;;;;;;5075012;28;19925;-80
2021/09/26 05:36:45;;;;;;;;;;;16.40;99.90;;;;;;5074926;28;20299;-79
2021/09/26 05:39:12;;;;;;;;;;;16.30;99.90;;;;;;5074777;28;19935;-80
2021/09/26 05:41:39;;;;;;;;;;;16.40;99.90;;;;;;5074727;28;19929;-79
2021/09/26 05:44:05;;;;;;;;;;;16.40;99.90;;;;;;5075062;28;19924;-79
2021/09/26 05:46:34;;;;;;;;;;;16.40;99.90;;;;;;5074794;28;19925;-80
2021/09/26 05:49:00;;;;;;;;;;;16.40;99.90;;;;;;5074689;28;19931;-80
2021/09/26 05:51:27;;;;;;;;;;;16.40;99.90;;;;;;5074703;28;19928;-80
2021/09/26 05:53:54;;;;;;;;;;;16.30;99.90;;;;;;5074558;28;19924;-79
2021/09/26 05:56:21;;;;;;;;;;;16.40;99.90;;;;;;5074990;28;19924;-80
2021/09/26 05:58:48;;;;;;;;;;;16.40;99.90;;;;;;5074562;28;20267;-80
2021/09/26 06:01:15;;;;;;;;;;;16.40;99.90;;;;;;5074461;28;19931;-80
2021/09/26 06:03:43;;;;;;;;;;;16.40;99.90;;;;;;5074441;28;19936;-79
2021/09/26 06:06:10;;;;;;;;;;;16.40;99.90;;;;;;5074546;28;19929;-79
2021/09/26 06:08:36;;;;;;;;;;;16.40;99.90;;;;;;5077680;28;20375;-79
2021/09/26 06:11:03;;;;;;;;;;;16.40;99.90;;;;;;5078231;28;19934;-79
2021/09/26 06:13:30;;;;;;;;;;;16.40;99.90;;;;;;5078142;28;19924;-79
2021/09/26 06:15:59;;;;;;;;;;;16.40;99.90;;;;;;5078270;28;19929;-79
2021/09/26 06:18:25;;;;;;;;;;;16.40;99.90;;;;;;5078500;28;20082;-79
2021/09/26 06:20:54;;;;;;;;;;;16.40;99.90;;;;;;5078159;28;19924;-79
2021/09/26 06:23:20;;;;;;;;;;;16.40;99.90;;;;;;5078600;28;19931;-79
2021/09/26 06:25:47;;;;;;;;;;;16.40;99.90;;;;;;5077804;28;19928;-79
2021/09/26 06:28:14;;;;;;;;;;;16.40;99.90;;;;;;5077984;28;19924;-79
2021/09/26 06:30:41;;;;;;;;;;;16.40;99.90;;;;;;5077853;28;19935;-79
2021/09/26 06:33:08;;;;;;;;;;;16.40;99.90;;;;;;5077871;28;19943;-79
2021/09/26 06:35:35;;;;;;;;;;;16.40;99.90;;;;;;5078105;28;19973;-79
2021/09/26 06:38:03;;;;;;;;;;;16.40;99.90;;;;;;5077764;28;19930;-78
2021/09/26 06:40:30;;;;;;;;;;;16.40;99.90;;;;;;5078038;28;19924;-79
2021/09/26 06:42:57;;;;;;;;;;;16.40;99.90;;;;;;5077816;28;19994;-79
2021/09/26 06:45:24;;;;;;;;;;;16.40;99.90;;;;;;5077813;28;19935;-79
2021/09/26 06:47:51;;;;;;;;;;;16.40;99.90;;;;;;5077715;28;19925;-79
2021/09/26 06:50:17;;;;;;;;;;;16.40;99.90;;;;;;5077519;28;20295;-78
2021/09/26 06:52:44;;;;;;;;;;;16.40;99.90;;;;;;5077529;28;19931;-79
2021/09/26 06:55:13;;;;;;;;;;;16.50;99.90;;;;;;5077485;28;19924;-78
2021/09/26 06:57:40;;;;;;;;;;;16.40;99.90;;;;;;5077400;28;19924;-79
2021/09/26 07:00:07;;;;;;;;;;;16.40;99.90;;;;;;5077488;28;19932;-78
2021/09/26 07:02:34;;;;;;;;;;;16.40;99.90;;;;;;5059777;28;19924;-79
2021/09/26 07:05:01;;;;;;;;;;;16.40;99.90;;;;;;5077382;28;19924;-79
2021/09/26 07:07:28;;;;;;;;;;;16.40;99.90;;;;;;5077329;28;19925;-78
2021/09/26 07:09:54;;;;;;;;;;;16.40;99.90;;;;;;5077488;28;19935;-79
2021/09/26 07:12:23;;;;;;;;;;;16.40;99.90;;;;;;5077376;28;20280;-79
2021/09/26 07:14:51;;;;;;;;;;;16.40;99.90;;;;;;5077093;28;19924;-79
2021/09/26 07:17:19;;;;;;;;;;;16.40;99.90;;;;;;5077008;28;19924;-79
2021/09/26 07:19:46;;;;;;;;;;;16.40;99.90;;;;;;5075941;28;19985;-79
2021/09/26 07:22:13;;;;;;;;;;;16.40;99.90;;;;;;5076916;28;19935;-79
2021/09/26 07:24:40;;;;;;;;;;;16.40;99.90;;;;;;5077169;28;19924;-79
2021/09/26 07:27:06;;;;;;;;;;;16.40;99.90;;;;;;5076806;28;19924;-78
2021/09/26 07:29:35;;;;;;;;;;;16.40;99.90;;;;;;5076852;28;19924;-78
2021/09/26 07:32:02;;;;;;;;;;;16.50;99.90;;;;;;5076809;28;19925;-79
2021/09/26 07:34:28;;;;;;;;;;;16.50;99.90;;;;;;5076655;28;20376;-79
2021/09/26 07:36:55;;;;;;;;;;;16.60;99.90;;;;;;5076534;28;19935;-78
2021/09/26 07:39:22;;;;;;;;;;;16.60;99.90;;;;;;5076970;28;19925;-79
2021/09/26 07:41:49;;;;;;;;;;;16.70;99.90;;;;;;5076755;28;19925;-79
2021/09/26 07:44:18;;;;;;;;;;;16.70;99.90;;;;;;5075863;28;20196;-79
2021/09/26 07:46:46;;;;;;;;;;;16.70;99.90;;;;;;5076416;28;19935;-79
2021/09/26 07:49:13;;;;;;;;;;;16.50;99.90;;;;;;5076348;28;20367;-78
2021/09/26 07:51:40;;;;;;;;;;;16.40;99.90;;;;;;5076444;28;19925;-78
2021/09/26 07:54:07;;;;;;;;;;;16.40;99.90;;;;;;5076418;28;19928;-78
2021/09/26 07:56:34;;;;;;;;;;;16.30;99.90;;;;;;5076323;28;19924;-78
2021/09/26 07:59:01;;;;;;;;;;;16.10;99.90;;;;;;5076112;28;20333;-79
2021/09/26 08:01:27;;;;;;;;;;;16.10;99.90;;;;;;5076166;28;19935;-78
2021/09/26 08:03:56;;;;;;;;;;;16.00;99.90;;;;;;5076247;28;19925;-79
2021/09/26 08:06:22;;;;;;;;;;;16.00;99.90;;;;;;5076013;28;20353;-79
2021/09/26 08:08:49;;;;;;;;;;;16.00;99.90;;;;;;5075938;28;19972;-78
2021/09/26 08:11:16;;;;;;;;;;;16.00;99.90;;;;;;5076051;28;19932;-79
2021/09/26 08:13:43;;;;;;;;;;;16.00;99.90;;;;;;5076075;28;20269;-78
2021/09/26 08:16:10;;;;;;;;;;;16.10;99.90;;;;;;5075854;28;19928;-79
2021/09/26 08:18:37;;;;;;;;;;;16.10;99.90;;;;;;5075696;28;19931;-78
2021/09/26 08:21:05;;;;;;;;;;;16.20;99.90;;;;;;5075768;28;19934;-78
2021/09/26 08:23:32;;;;;;;;;;;16.30;99.90;;;;;;5075642;28;20383;-78
2021/09/26 08:25:59;;;;;;;;;;;16.40;99.90;;;;;;5075713;28;19928;-78
2021/09/26 08:28:26;;;;;;;;;;;16.40;99.90;;;;;;5075708;28;19947;-79
2021/09/26 08:30:52;;;;;;;;;;;16.60;99.90;;;;;;5075465;28;19928;-79
2021/09/26 08:33:19;;;;;;;;;;;16.70;99.90;;;;;;5075983;28;19924;-79
2021/09/26 08:35:46;;;;;;;;;;;16.70;99.90;;;;;;5075868;28;19924;-79
2021/09/26 08:38:14;;;;;;;;;;;16.70;99.90;;;;;;5075548;28;20349;-78
2021/09/26 08:40:42;;;;;;;;;;;16.70;99.90;;;;;;5075400;28;19934;-79
2021/09/26 08:43:10;;;;;;;;;;;16.70;99.90;;;;;;5075517;28;19924;-79
2021/09/26 08:45:39;;;;;;;;;;;16.70;99.90;;;;;;5075302;28;19928;-78
2021/09/26 08:48:07;;;;;;;;;;;16.70;99.90;;;;;;5075333;28;20363;-79
2021/09/26 08:50:36;;;;;;;;;;;16.70;99.90;;;;;;5075586;28;19924;-78
2021/09/26 08:53:04;;;;;;;;;;;16.70;99.90;;;;;;5075311;28;19930;-77
2021/09/26 08:55:34;;;;;;;;;;;16.70;99.90;;;;;;5075231;28;19924;-79
2021/09/26 08:58:01;;;;;;;;;;;16.70;99.90;;;;;;5075142;28;19939;-78
2021/09/26 09:00:28;;;;;;;;;;;16.70;99.90;;;;;;5074930;28;19931;-78
2021/09/26 09:02:57;;;;;;;;;;;16.70;99.90;;;;;;5075163;28;20260;-78
2021/09/26 09:05:27;;;;;;;;;;;16.70;99.90;;;;;;5075071;28;19925;-78
2021/09/26 09:08:02;;;;;;;;;;;16.90;99.90;;;;;;5074280;28;20311;-79
2021/09/26 09:10:38;;;;;;;;;;;17.00;99.90;;;;;;5075006;28;20011;-78
2021/09/26 09:13:05;;;;;;;;;;;17.00;99.90;;;;;;5075022;28;20271;-78
2021/09/26 09:15:32;;;;;;;;;;;17.00;99.90;;;;;;5075159;28;20368;-79
2021/09/26 09:18:00;;;;;;;;;;;17.00;99.90;;;;;;5074938;28;19933;-78
2021/09/26 09:20:27;;;;;;;;;;;17.00;99.90;;;;;;5074941;28;19932;-78
2021/09/26 09:22:56;;;;;;;;;;;17.10;99.90;;;;;;5075007;28;19989;-78
2021/09/26 09:25:30;;;;;;;;;;;17.10;99.90;;;;;;5074915;28;19925;-78
2021/09/26 09:27:58;;;;;;;;;;;17.10;99.90;;;;;;5074710;28;20367;-78
2021/09/26 09:30:29;;;;;;;;;;;17.10;99.90;;;;;;5075106;28;19925;-79
2021/09/26 09:32:56;;;;;;;;;;;17.10;99.90;;;;;;5074971;28;20288;-79
2021/09/26 09:35:23;;;;;;;;;;;17.10;99.90;;;;;;5075042;28;20398;-79
2021/09/26 09:37:49;;;;;;;;;;;17.20;99.90;;;;;;5075058;28;19976;-79
2021/09/26 09:40:17;;;;;;;;;;;17.30;99.90;;;;;;5074935;28;19924;-79
2021/09/26 09:42:44;;;;;;;;;;;17.40;99.90;;;;;;5076809;28;19924;-78
2021/09/26 09:45:20;;;;;;;;;;;17.40;99.90;;;;;;5079320;28;19924;-79
2021/09/26 09:48:14;;;;;;;;;;;17.40;99.90;;;;;;5078689;28;19931;-78
2021/09/26 09:50:51;;;;;;;;;;;17.40;99.90;;;;;;5037150;28;20095;-79
2021/09/26 09:53:19;;;;;;;;;;;17.40;99.90;;;;;;5037112;28;20276;-79
2021/09/26 09:55:46;;;;;;;;;;;17.40;99.90;;;;;;5037165;28;19932;-79
2021/09/26 09:58:13;;;;;;;;;;;17.40;99.90;;;;;;5037292;28;19925;-78
2021/09/26 10:00:51;;;;;;;;;;;17.50;99.90;;;;;;5036878;28;20087;-79
2021/09/26 10:03:37;;;;;;;;;;;17.50;99.90;;;;;;5036892;28;20350;-79
2021/09/26 10:06:04;;;;;;;;;;;17.60;99.90;;;;;;5036887;28;19925;-78
2021/09/26 10:08:32;;;;;;;;;;;17.70;99.90;;;;;;5036719;28;19932;-78
2021/09/26 10:11:05;;;;;;;;;;;17.70;99.90;;;;;;5036773;28;19929;-79
2021/09/26 10:13:32;;;;;;;;;;;17.80;99.90;;;;;;5036736;28;19926;-78
2021/09/26 10:16:01;;;;;;;;;;;17.90;99.90;;;;;;5036754;28;19928;-78
2021/09/26 10:18:29;;;;;;;;;;;18.00;99.90;;;;;;5036679;28;19940;-78
2021/09/26 10:20:55;;;;;;;;;;;18.00;99.90;;;;;;5036556;28;19925;-79
2021/09/26 10:23:22;;;;;;;;;;;18.10;99.90;;;;;;5036438;28;20265;-79
2021/09/26 10:25:49;;;;;;;;;;;18.10;99.90;;;;;;5046509;28;19931;-79
2021/09/26 10:28:16;;;;;;;;;;;18.10;99.90;;;;;;5077879;28;19935;-79
2021/09/26 10:30:44;;;;;;;;;;;18.10;99.90;;;;;;5078034;28;19925;-78
2021/09/26 10:33:12;;;;;;;;;;;18.00;99.90;;;;;;5077888;28;19928;-79
2021/09/26 10:35:40;;;;;;;;;;;18.00;99.90;;;;;;5077619;28;20023;-79
2021/09/26 10:38:10;;;;;;;;;;;17.90;99.90;;;;;;5077821;28;19924;-79
2021/09/26 10:40:38;;;;;;;;;;;18.00;99.90;;;;;;5077672;28;19924;-79
2021/09/26 10:43:17;;;;;;;;;;;18.00;99.90;;;;;;5077821;28;19924;-79
2021/09/26 10:45:45;;;;;;;;;;;18.10;99.90;;;;;;5077993;28;20363;-79
2021/09/26 10:48:14;;;;;;;;;;;18.10;99.90;;;;;;5077620;28;19924;-79
2021/09/26 10:50:42;;;;;;;;;;;18.00;99.90;;;;;;5077532;28;19925;-79
2021/09/26 10:53:09;;;;;;;;;;;18.00;99.90;;;;;;5077350;28;20356;-79
2021/09/26 10:55:36;;;;;;;;;;;18.00;99.90;;;;;;5077370;28;19937;-79
2021/09/26 10:58:10;;;;;;;;;;;17.90;99.90;;;;;;5077588;28;20262;-79
2021/09/26 11:00:39;;;;;;;;;;;17.90;99.90;;;;;;5077412;28;19928;-79
2021/09/26 11:03:07;;;;;;;;;;;17.80;99.90;;;;;;5077341;28;19924;-79
2021/09/26 11:05:42;;;;;;;;;;;17.90;99.90;;;;;;5077178;28;19924;-79
2021/09/26 11:08:10;;;;;;;;;;;17.90;99.90;;;;;;5077118;28;19924;-79
2021/09/26 11:10:48;;;;;;;;;;;17.80;99.90;;;;;;5077421;28;19925;-79
2021/09/26 11:13:23;;;;;;;;;;;17.90;99.90;;;;;;5077482;28;19935;-79
2021/09/26 11:16:09;;;;;;;;;;;17.80;99.90;;;;;;5077061;28;19924;-79
2021/09/26 11:18:49;;;;;;;;;;;17.80;99.90;;;;;;5077344;28;19924;-79
2021/09/26 11:21:36;;;;;;;;;;;17.70;99.90;;;;;;5077008;28;20023;-79
2021/09/26 11:24:08;;;;;;;;;;;17.70;99.90;;;;;;5076786;28;19968;-79
2021/09/26 11:26:55;;;;;;;;;;;17.80;99.90;;;;;;5077032;28;19925;-79
2021/09/26 11:29:23;;;;;;;;;;;17.80;99.90;;;;;;5076713;28;19932;-79
2021/09/26 11:31:51;;;;;;;;;;;17.80;99.90;;;;;;5076707;28;19925;-79
2021/09/26 11:34:27;;;;;;;;;;;17.90;99.90;;;;;;5075909;28;19964;-79
2021/09/26 11:36:55;;;;;;;;;;;17.90;99.90;;;;;;5076852;28;19924;-79
2021/09/26 11:39:27;;;;;;;;;;;17.90;99.90;;;;;;5076537;28;20278;-79
2021/09/26 11:41:55;;;;;;;;;;;17.90;99.90;;;;;;5076605;28;20287;-79
2021/09/26 11:44:22;;;;;;;;;;;18.00;99.90;;;;;;5076408;28;19925;-79
2021/09/26 11:46:49;;;;;;;;;;;18.00;99.90;;;;;;5076471;28;19925;-79
2021/09/26 11:49:16;;;;;;;;;;;18.10;99.90;;;;;;5076331;28;19935;-79
2021/09/26 11:51:42;;;;;;;;;;;18.30;99.90;;;;;;5076376;28;19971;-78
2021/09/26 11:54:09;;;;;;;;;;;18.50;99.90;;;;;;5076253;28;19925;-78
2021/09/26 11:56:38;;;;;;;;;;;18.60;99.90;;;;;;5076173;28;19924;-78
2021/09/26 11:59:05;;;;;;;;;;;18.70;99.90;;;;;;5075368;28;19978;-78
2021/09/26 12:01:34;;;;;;;;;;;18.70;99.90;;;;;;5076144;28;19935;-77
2021/09/26 12:04:05;;;;;;;;;;;18.70;99.90;;;;;;5076069;28;20353;-77
2021/09/26 12:06:32;;;;;;;;;;;18.70;99.90;;;;;;5075609;28;19933;-78
2021/09/26 12:08:59;;;;;;;;;;;18.90;99.90;;;;;;5071199;28;20284;-78
2021/09/26 12:11:26;;;;;;;;;;;18.90;99.90;;;;;;5072879;28;19959;-78
2021/09/26 12:13:58;;;;;;;;;;;18.90;99.90;;;;;;5074855;28;19938;-78
2021/09/26 12:16:25;;;;;;;;;;;18.90;99.90;;;;;;5065306;28;19979;-78
2021/09/26 12:18:54;;;;;;;;;;;18.90;99.90;;;;;;5058009;28;19931;-79
2021/09/26 12:21:25;;;;;;;;;;;18.90;99.90;;;;;;5074088;28;19929;-78
2021/09/26 12:23:54;;;;;;;;;;;19.00;99.90;;;;;;5073953;28;19924;-78
2021/09/26 12:26:22;;;;;;;;;;;19.10;99.90;;;;;;5075622;28;19935;-78
2021/09/26 12:29:02;;;;;;;;;;;19.20;99.90;;;;;;5075224;28;19931;-78
2021/09/26 12:31:29;;;;;;;;;;;19.30;99.90;;;;;;5060130;28;19952;-78
2021/09/26 12:33:56;;;;;;;;;;;19.20;99.90;;;;;;5075480;28;19932;-78
2021/09/26 12:36:23;;;;;;;;;;;19.20;99.90;;;;;;5059300;28;19924;-78
2021/09/26 12:38:50;;;;;;;;;;;19.30;99.90;;;;;;5066776;28;19924;-78
2021/09/26 12:41:24;;;;;;;;;;;19.30;99.90;;;;;;5075910;28;19924;-78
2021/09/26 12:43:52;;;;;;;;;;;19.40;99.90;;;;;;5075187;28;19932;-78
2021/09/26 12:46:20;;;;;;;;;;;19.50;99.90;;;;;;5075353;28;19924;-77
2021/09/26 12:48:47;;;;;;;;;;;19.60;99.90;;;;;;5075397;28;19934;-78
2021/09/26 12:51:15;;;;;;;;;;;19.60;99.90;;;;;;5075519;28;19925;-77
2021/09/26 12:53:43;;;;;;;;;;;19.70;99.90;;;;;;5075325;28;19981;-78
2021/09/26 12:56:14;;;;;;;;;;;19.70;99.90;;;;;;5060801;28;20028;-78
2021/09/26 12:58:42;;;;;;;;;;;19.70;99.90;;;;;;5057815;28;19925;-77
2021/09/26 13:01:12;;;;;;;;;;;19.70;99.90;;;;;;5064242;28;20345;-78
2021/09/26 13:03:44;;;;;;;;;;;19.70;99.90;;;;;;5072672;28;19931;-78
2021/09/26 13:06:11;;;;;;;;;;;19.70;99.90;;;;;;5075273;28;19939;-78
2021/09/26 13:08:39;;;;;;;;;;;19.70;99.90;;;;;;5074769;28;19939;-78
2021/09/26 13:11:07;;;;;;;;;;;19.70;99.90;;;;;;5067744;28;19925;-78
2021/09/26 13:13:34;;;;;;;;;;;19.70;99.90;;;;;;5085169;28;19925;-78
2021/09/26 13:16:27;;;;;;;;;;;19.70;99.90;;;;;;5075016;28;19928;-78
2021/09/26 13:18:56;;;;;;;;;;;19.70;99.90;;;;;;5074770;28;19925;-78
2021/09/26 13:21:32;;;;;;;;;;;19.80;99.90;;;;;;5074885;28;19924;-78
2021/09/26 13:24:00;;;;;;;;;;;19.80;99.90;;;;;;5074550;28;19952;-78
2021/09/26 13:26:30;;;;;;;;;;;19.70;99.90;;;;;;5074923;28;19924;-78
2021/09/26 13:28:58;;;;;;;;;;;19.70;99.90;;;;;;5074543;28;20049;-78
2021/09/26 13:31:25;;;;;;;;;;;19.70;99.90;;;;;;5074826;28;20272;-78
2021/09/26 13:33:57;;;;;;;;;;;19.60;99.90;;;;;;5075123;28;19939;-78
2021/09/26 13:36:32;;;;;;;;;;;19.60;99.90;;;;;;5075234;28;19924;-78
2021/09/26 13:39:01;;;;;;;;;;;19.60;99.90;;;;;;5071439;28;20254;-78
2021/09/26 13:41:32;;;;;;;;;;;19.50;99.90;;;;;;5072612;28;19925;-78
2021/09/26 13:44:01;;;;;;;;;;;19.50;99.90;;;;;;5074163;28;20015;-78
2021/09/26 13:46:28;;;;;;;;;;;19.40;99.90;;;;;;5059954;28;19931;-78
2021/09/26 13:48:57;;;;;;;;;;;19.30;99.90;;;;;;5071137;28;19955;-78
2021/09/26 13:51:24;;;;;;;;;;;19.30;99.90;;;;;;5074765;28;19925;-79
2021/09/26 13:53:51;;;;;;;;;;;19.30;99.90;;;;;;5074792;28;19928;-78
2021/09/26 13:56:18;;;;;;;;;;;19.30;99.90;;;;;;5067907;28;19925;-78
2021/09/26 13:58:45;;;;;;;;;;;19.30;99.90;;;;;;5067133;28;19931;-79
2021/09/26 14:01:12;;;;;;;;;;;19.20;99.90;;;;;;5074776;28;19944;-78
2021/09/26 14:03:39;;;;;;;;;;;19.30;99.90;;;;;;5074210;28;19931;-78
2021/09/26 14:06:07;;;;;;;;;;;19.20;99.90;;;;;;5074358;28;19924;-78
2021/09/26 14:08:34;;;;;;;;;;;19.20;99.90;;;;;;5065118;28;19925;-79
2021/09/26 14:11:04;;;;;;;;;;;19.10;99.90;;;;;;5074237;28;19925;-79
2021/09/26 14:13:34;;;;;;;;;;;19.10;99.90;;;;;;5073672;28;20001;-79
2021/09/26 14:16:01;;;;;;;;;;;19.00;99.90;;;;;;5073469;28;20308;-78
2021/09/26 14:18:28;;;;;;;;;;;19.00;99.90;;;;;;5073479;28;19924;-79
2021/09/26 14:20:55;;;;;;;;;;;19.00;99.90;;;;;;5068882;28;19935;-79
2021/09/26 14:23:25;;;;;;;;;;;19.00;99.90;;;;;;5074351;28;19924;-79